Arbúcies





Hora UTC 20:25
Temperatura 19.6 ºC
Humitat 91.6 %
Pressió 1022.0 hPa
Pluja 0.2 mm
Velocitat vent 2.3 km/h
Direcció vent WSW
Radiació solar 0.0 W/m²

Dades diàries 2020-08-03



Hora UTC (hivern +1h; estiu +2h)
Temperatura (ºC) Humitat (%) Pressió (hPa) Velocitat vent (km/h) Precipitació (mm) Radiació solar (W/m²)
Hora UTC Aire Humitat Pressió Vel. Dir. Vel. Max Dir. Intent. màx 5 min. Rad. Sol.
00:05 21.2 77.9 1022.0 5.0 SSW 7.1 SSW 0.0 0.0
00:10 21.2 77.7 1022.0 4.6 SSW 7.1 SSW 0.0 0.0
00:15 21.3 76.9 1022.0 4.6 SSW 7.4 SSW 0.0 0.0
00:20 21.3 77.3 1022.0 4.3 SW 6.7 SW 0.0 0.0
00:25 21.2 77.7 1021.0 4.1 SSW 6.7 SSW 0.0 0.0
00:30 21.2 78.2 1022.0 2.5 SW 5.6 SSW 0.0 0.0
00:35 21.1 78.2 1022.0 5.2 SSW 7.4 SW 0.0 0.0
00:40 21.2 78.0 1022.0 4.7 SW 7.8 WSW 0.0 0.0
00:45 21.2 77.9 1021.0 4.8 SW 8.1 SSW 0.0 0.0
00:50 21.2 78.1 1022.0 5.1 SSW 6.4 SW 0.0 0.0
00:55 21.1 78.4 1021.0 4.2 SW 6.0 SW 0.0 0.0
01:00 21.1 78.6 1021.0 2.0 SW 4.6 W 0.0 0.0
01:05 21.2 78.7 1021.0 1.8 SSW 4.6 SSW 0.0 0.0
01:10 21.2 78.1 1021.0 4.2 SSW 7.4 SSW 0.0 0.0
01:15 21.2 78.0 1021.0 4.3 SSW 6.4 SW 0.0 0.0
01:20 21.2 78.3 1022.0 4.9 SW 7.1 SW 0.0 0.0
01:25 21.2 78.6 1021.0 3.0 SSW 4.9 SW 0.0 0.0
01:30 21.1 78.7 1021.0 3.6 SW 7.8 SW 0.0 0.0
01:35 21.1 78.8 1021.0 3.1 SSW 6.4 SW 0.0 0.0
01:40 21.1 78.6 1021.0 2.1 S 4.2 S 0.0 0.0
01:45 21.2 78.7 1021.0 0.9 WSW 3.2 WSW 0.0 0.0
01:50 21.1 79.1 1021.0 1.8 W 3.9 WSW 0.0 0.0
01:55 20.9 79.9 1021.0 2.3 SSW 3.9 S 0.0 0.0
02:00 20.7 80.3 1021.0 3.4 WSW 4.9 W 0.0 0.0
02:05 20.6 81.0 1021.0 2.5 SW 3.5 WSW 0.0 0.0
02:10 20.5 81.7 1021.0 2.8 WSW 4.2 W 0.0 0.0
02:15 20.3 82.6 1021.0 1.6 SW 4.2 SW 0.0 0.0
02:20 20.2 83.0 1022.0 4.6 SW 7.4 SW 0.0 0.0
02:25 20.1 82.7 1021.0 4.8 SW 6.7 SW 0.0 0.0
02:30 20.1 81.9 1021.0 2.3 NE 4.6 S 0.0 0.0
02:35 20.2 81.5 1021.0 3.3 NNE 6.0 ENE 0.0 0.0
02:40 20.1 81.4 1021.0 1.4 NNW 5.3 NNW 0.0 0.0
02:45 20.1 81.0 1021.0 1.4 N 6.0 NNE 0.0 0.0
02:50 20.0 78.9 1022.0 2.6 N 5.3 N 0.0 0.0
02:55 19.9 76.2 1021.0 3.2 NNW 7.8 NNW 0.0 0.0
03:00 19.9 74.7 1021.0 1.9 WNW 3.5 WNW 0.0 0.0
03:05 19.9 74.2 1022.0 1.6 NW 4.2 NW 0.0 0.0
03:10 19.9 73.8 1021.0 0.1 SE 1.1 SE 0.0 0.0
03:15 20.0 75.9 1021.0 1.0 W 3.2 W 0.0 0.0
03:20 19.8 77.2 1022.0 1.1 WSW 3.9 SW 0.0 0.0
03:25 19.7 78.4 1021.0 2.2 WSW 3.9 WSW 0.0 0.0
03:30 19.3 79.7 1021.0 2.7 W 4.6 W 0.0 0.0
03:35 19.1 81.2 1022.0 2.4 WSW 4.2 SW 0.0 0.0
03:40 19.1 82.6 1022.0 5.4 SSW 9.2 SW 0.0 0.0
03:45 19.0 83.4 1021.0 5.1 SW 8.5 SSW 0.0 0.0
03:50 18.9 83.9 1022.0 4.5 SW 7.1 SW 0.0 0.0
03:55 18.9 84.2 1022.0 4.1 SW 5.3 SW 0.0 0.0
04:00 18.9 84.9 1021.0 4.2 WSW 8.8 SW 0.0 0.0
04:05 18.7 85.3 1022.0 5.9 SW 10.6 SW 0.0 0.0
04:10 18.6 85.0 1022.0 4.7 SW 9.2 SSW 0.0 0.0
04:15 18.5 83.6 1022.0 5.3 SW 8.8 WSW 0.0 0.0
04:20 18.5 81.0 1022.0 4.0 SW 6.0 SSW 0.0 0.0
04:25 18.6 81.7 1021.0 3.1 WSW 6.4 SW 0.0 0.0
04:30 18.3 82.1 1021.0 5.3 SW 10.9 SSW 0.0 0.0
04:35 18.1 82.1 1022.0 3.6 W 7.4 NNW 0.0 0.0
04:40 18.1 81.5 1022.0 1.9 WNW 3.2 WSW 0.0 0.0
04:45 18.1 82.0 1021.0 3.4 SSW 6.0 S 0.0 0.0
04:50 18.1 83.0 1022.0 1.3 WNW 3.5 WNW 0.0 0.0
04:55 18.0 83.5 1022.0 1.9 WSW 3.5 SW 0.0 0.3
05:00 17.9 84.2 1022.0 3.0 SW 4.9 SW 0.0 1.3
05:05 17.8 84.9 1022.0 2.6 WNW 4.9 WNW 0.0 2.8
05:10 17.6 85.3 1021.0 0.8 WSW 4.6 SW 0.0 3.0
05:15 17.7 85.4 1021.0 4.6 SSW 8.5 SW 0.0 4.7
05:20 17.7 84.8 1022.0 6.0 SW 10.6 SSW 0.0 7.0
05:25 17.7 84.7 1021.0 3.2 WSW 4.9 WSW 0.0 9.8
05:30 17.7 84.8 1021.0 1.7 WSW 3.9 W 0.0 12.2
05:35 17.7 85.0 1022.0 2.1 WSW 3.9 WSW 0.0 12.7
05:40 17.6 85.3 1022.0 4.3 SW 6.7 SW 0.0 13.6
05:45 17.6 85.6 1022.0 6.2 SW 10.9 SW 0.0 15.4
05:50 17.5 85.5 1022.0 6.6 SW 11.6 SW 0.0 18.0
05:55 17.6 85.0 1022.0 5.6 SSW 9.9 SW 0.0 21.4
06:00 17.8 84.4 1022.0 2.9 W 5.3 W 0.0 26.7
06:05 17.9 84.1 1022.0 1.9 WSW 3.2 W 0.0 39.4
06:10 17.9 83.9 1022.0 0.5 SW 2.1 SW 0.0 48.0
06:15 18.0 83.9 1022.0 1.4 WNW 2.5 W 0.0 45.5
06:20 18.0 83.9 1022.0 0.9 N 2.5 NW 0.0 45.2
06:25 18.0 83.5 1022.0 0.7 NW 2.8 NW 0.0 40.4
06:30 18.1 83.7 1021.0 1.2 NNW 3.2 NNW 0.0 43.6
06:35 18.2 83.7 1022.0 3.1 NE 7.1 ENE 0.0 49.7
06:40 18.4 83.5 1022.0 3.4 NNE 5.6 NE 0.0 48.2
06:45 18.4 83.1 1022.0 4.9 NNW 9.9 NNW 0.0 69.4
06:50 18.5 82.8 1022.0 2.4 N 4.6 NNE 0.0 115.2
06:55 18.6 81.8 1022.0 1.5 NW 3.5 W 0.0 92.1
07:00 18.8 81.1 1022.0 1.5 NE 6.0 ENE 0.0 72.3
07:05 18.9 79.4 1022.0 2.4 NE 6.0 ENE 0.0 137.9
07:10 19.2 78.4 1022.0 0.8 S 3.9 SSW 0.0 318.6
07:15 20.0 75.2 1022.0 1.8 SSE 6.7 SE 0.0 404.1
07:20 20.7 72.1 1022.0 1.1 NE 3.5 NE 0.0 411.7
07:25 20.9 68.6 1022.0 1.9 NNW 6.7 NNW 0.0 424.4
07:30 20.7 69.2 1022.0 2.1 NNW 5.3 NNW 0.0 439.9
07:35 21.2 67.4 1022.0 1.1 N 3.9 N 0.0 456.4
07:40 21.9 63.5 1022.0 2.4 NNE 6.7 NE 0.0 477.2
07:45 21.9 59.9 1022.0 5.4 ENE 8.5 ENE 0.0 493.3
07:50 21.6 59.7 1022.0 3.4 ENE 5.6 E 0.0 509.3
07:55 22.3 58.4 1022.0 3.2 ENE 8.1 ENE 0.0 526.3
08:00 22.0 58.4 1022.0 2.3 SE 5.3 ESE 0.0 537.5
08:05 22.3 57.7 1022.0 1.5 E 4.2 ESE 0.0 549.0
08:10 22.6 56.4 1022.0 0.8 NNW 4.2 E 0.0 563.0
08:15 22.6 55.8 1022.0 4.5 N 7.8 NNW 0.0 582.3
08:20 23.0 53.5 1022.0 4.3 NE 9.9 NNE 0.0 599.4
08:25 23.4 51.3 1022.0 1.9 ENE 5.3 NNE 0.0 613.0
08:30 23.5 51.1 1022.0 1.8 SW 3.5 SSE 0.0 638.6
08:35 23.6 50.7 1022.0 1.0 WNW 3.5 WNW 0.0 696.1
08:40 24.4 47.4 1022.0 2.6 S 5.6 SW 0.0 603.9
08:45 23.8 47.7 1022.0 2.7 SW 5.6 WSW 0.0 558.5
08:50 23.3 49.0 1022.0 4.3 SSW 6.7 SSW 0.0 580.6
08:55 23.7 47.8 1022.0 2.0 SSW 4.9 SW 0.0 593.9
09:00 24.3 47.3 1022.0 3.5 E 10.9 NE 0.0 656.9
09:05 24.7 47.1 1022.0 3.0 NE 7.8 NE 0.0 750.3
09:10 25.0 45.9 1022.0 3.2 NE 10.6 ENE 0.0 600.0
09:15 24.7 46.7 1022.0 3.7 ESE 11.6 E 0.0 780.5
09:20 24.7 46.4 1022.0 4.1 NE 10.9 ENE 0.0 790.7
09:25 24.8 45.5 1022.0 3.4 E 9.2 ENE 0.0 802.0
09:30 24.8 45.5 1022.0 3.1 E 9.5 ENE 0.0 764.5
09:35 25.0 46.1 1022.0 4.8 ENE 12.7 ENE 0.0 808.0
09:40 25.0 46.8 1021.0 6.7 E 12.7 ENE 0.0 824.0
09:45 24.7 48.9 1022.0 4.9 ENE 10.2 NE 0.0 468.4
09:50 24.5 49.9 1022.0 4.9 N 9.2 NNE 0.0 848.0
09:55 24.9 49.5 1022.0 9.3 ENE 19.4 ENE 0.0 886.0
10:00 25.1 48.4 1022.0 6.4 ENE 13.4 ENE 0.0 914.0
10:05 25.2 48.4 1022.0 3.7 ENE 12.3 ENE 0.0 936.0
10:10 25.6 47.4 1022.0 5.4 ENE 19.8 NE 0.0 940.0
10:15 26.1 45.3 1022.0 6.9 E 18.7 ENE 0.0 916.0
10:20 25.2 46.8 1022.0 2.0 W 8.5 E 0.0 910.0
10:25 25.4 46.4 1021.0 3.9 SSW 11.6 SW 0.0 911.0
10:30 25.5 45.9 1021.0 4.5 N 9.5 NNE 0.0 769.2
10:35 25.7 45.5 1021.0 5.5 ENE 11.3 ENE 0.0 797.5
10:40 25.7 44.6 1021.0 5.3 ENE 10.2 ESE 0.0 916.0
10:45 26.2 44.2 1021.0 3.7 NNE 9.2 NNE 0.0 960.0
10:50 26.2 42.5 1022.0 3.6 ESE 7.1 ENE 0.0 961.0
10:55 26.1 44.6 1021.0 4.8 NE 11.3 NE 0.0 902.0
11:00 26.6 43.7 1021.0 8.5 ENE 20.1 NE 0.0 987.0
11:05 26.8 43.1 1021.0 9.4 NE 15.2 NE 0.0 977.0
11:10 26.9 42.3 1021.0 4.1 ENE 22.2 E 0.0 987.0
11:15 27.6 42.0 1021.0 6.2 NE 19.4 ENE 0.0 812.0
11:20 27.0 43.1 1022.0 7.8 ENE 17.6 E 0.0 975.0
11:25 27.2 42.0 1021.0 5.2 SSE 9.5 NNE 0.0 1062.0
11:30 27.0 42.6 1021.0 7.0 SSE 15.9 SW 0.0 1068.0
11:35 27.5 40.7 1021.0 7.9 E 19.4 NE 0.0 975.0
11:40 26.9 42.6 1021.0 8.6 NE 16.6 ENE 0.0 997.0
11:45 26.6 42.5 1021.0 5.8 NE 16.2 E 0.0 717.7
11:50 26.6 41.7 1022.0 6.0 E 13.8 ENE 0.0 356.6
11:55 26.1 43.8 1021.0 7.2 ENE 15.9 NE 0.0 303.8
12:00 25.9 45.4 1021.0 6.8 NE 15.9 NNE 0.0 347.1
12:05 26.2 45.3 1021.0 5.2 ENE 11.3 ENE 0.0 733.1
12:10 26.9 41.9 1021.0 4.6 SE 9.9 SE 0.0 850.0
12:15 27.0 40.7 1021.0 4.1 S 9.9 NE 0.0 613.9
12:20 26.8 42.0 1021.0 5.9 E 13.1 NNE 0.0 372.4
12:25 26.2 43.7 1021.0 5.7 E 16.2 ENE 0.0 694.6
12:30 26.5 44.4 1021.0 8.4 NE 13.8 ENE 0.0 904.0
12:35 26.6 44.9 1021.0 8.1 ENE 18.7 NE 0.0 361.3
12:40 26.3 45.9 1021.0 8.3 ENE 18.0 ENE 0.0 489.8
12:45 26.1 47.0 1021.0 9.1 ENE 19.1 ENE 0.0 696.0
12:50 26.0 46.9 1021.0 8.6 ENE 15.5 E 0.0 431.1
12:55 25.8 47.8 1021.0 6.6 ENE 14.8 ENE 0.0 555.9
13:00 25.8 47.8 1021.0 7.3 NE 16.6 ENE 0.0 281.7
13:05 25.7 48.2 1021.0 5.4 NE 10.9 NE 0.0 412.9
13:10 25.8 47.6 1021.0 5.3 ENE 16.2 ENE 0.0 289.1
13:15 25.7 48.5 1020.0 6.0 NE 10.9 NE 0.0 179.2
13:20 25.4 49.2 1021.0 4.0 ENE 9.9 ENE 0.0 176.9
13:25 25.3 49.7 1021.0 7.4 NE 14.8 NE 0.0 197.9
13:30 25.2 49.7 1020.0 6.3 ENE 11.6 E 0.0 207.7
13:35 25.2 50.5 1021.0 2.7 SE 7.4 ENE 0.0 226.8
13:40 25.2 49.7 1021.0 4.1 ENE 9.2 ENE 0.0 322.5
13:45 25.3 49.9 1020.0 2.9 NE 9.2 ENE 0.0 411.2
13:50 25.5 49.0 1021.0 5.3 NNE 12.3 NE 0.0 254.7
13:55 25.3 49.5 1020.0 7.6 ENE 18.0 ENE 0.0 208.2
14:00 25.0 50.4 1020.0 4.8 ENE 13.1 ESE 0.0 393.7
14:05 25.4 50.9 1020.0 7.0 NE 16.2 NE 0.0 541.3
14:10 25.4 50.1 1020.0 4.3 NE 12.3 NE 0.0 303.6
14:15 25.4 50.5 1020.0 3.3 ESE 10.6 SE 0.0 830.0
14:20 25.9 48.9 1021.0 3.7 NE 15.2 ENE 0.0 436.5
14:25 25.7 49.4 1020.0 5.1 ENE 14.5 NE 0.0 365.2
14:30 25.3 50.5 1020.0 3.9 ENE 16.9 ENE 0.0 199.7
14:35 24.8 51.5 1020.0 9.0 ENE 22.2 ENE 0.0 225.6
14:40 24.5 52.7 1020.0 7.4 NE 18.7 NE 0.0 208.1
14:45 24.2 53.2 1020.0 3.8 ESE 15.5 ENE 0.0 209.5
14:50 24.4 53.6 1021.0 5.1 ENE 13.1 ENE 0.0 215.0
14:55 24.7 53.3 1020.0 7.4 ENE 22.2 NE 0.0 213.3
15:00 24.6 53.1 1020.0 6.2 NE 16.9 NNE 0.0 186.5
15:05 24.4 53.9 1020.0 3.5 NE 12.7 NNE 0.0 145.0
15:10 24.4 54.4 1020.0 1.3 ENE 6.0 SE 0.0 131.4
15:15 24.2 54.6 1020.0 6.8 ENE 14.1 ENE 0.0 110.7
15:20 24.0 56.6 1021.0 5.8 NE 11.6 NE 0.0 135.9
15:25 24.0 56.9 1020.0 7.0 NE 14.8 ENE 0.0 241.9
15:30 24.3 56.2 1020.0 10.2 NE 21.2 ENE 0.0 229.0
15:35 24.3 56.1 1020.0 4.8 NE 12.3 ENE 0.0 218.4
15:40 24.4 56.4 1020.0 7.6 NE 14.8 NE 0.0 248.0
15:45 24.4 56.7 1020.0 6.2 NE 16.2 ENE 0.0 209.2
15:50 24.3 56.7 1020.0 9.7 NE 19.8 NE 0.0 240.4
15:55 24.5 57.2 1020.0 9.5 NE 20.8 NE 0.0 370.4
16:00 24.9 56.0 1020.0 10.1 NE 19.1 ENE 0.0 350.8
16:05 24.7 56.3 1020.0 10.4 NE 22.9 NE 0.0 262.8
16:10 24.5 57.8 1020.0 9.5 NNE 20.5 N 0.0 170.0
16:15 24.1 58.9 1020.0 8.6 NNE 17.6 NNE 0.0 89.7
16:20 23.8 60.1 1020.0 8.9 NE 18.0 NE 0.0 70.7
16:25 23.6 61.3 1020.0 8.3 NNE 20.5 ENE 0.0 48.6
16:30 23.3 61.7 1020.0 11.3 NNE 20.1 E 0.0 64.4
16:35 23.2 62.7 1020.0 11.6 NE 23.3 NE 0.0 90.3
16:40 23.1 64.9 1020.0 7.0 NNE 15.2 ENE 0.0 60.1
16:45 22.9 66.2 1020.0 8.6 NNE 22.2 NE 0.0 48.2
16:50 22.7 67.0 1021.0 7.4 NNE 17.3 NE 0.0 45.1
16:55 22.5 67.2 1020.0 7.1 NNE 17.3 ENE 0.0 44.3
17:00 22.5 67.4 1020.0 7.8 NNE 20.1 NNE 0.0 38.6
17:05 22.5 67.3 1020.0 7.5 NE 18.7 NE 0.0 40.6
17:10 22.5 66.9 1020.0 6.8 ENE 15.2 NNE 0.0 52.9
17:15 22.5 66.6 1020.0 9.1 ENE 22.2 ENE 0.0 45.3
17:20 22.5 66.5 1021.0 5.5 ENE 14.1 NE 0.0 30.6
17:25 22.4 66.3 1020.0 4.6 ESE 13.8 E 0.0 23.5
17:30 22.4 66.3 1020.0 1.7 ENE 4.6 SSW 0.0 13.0
17:35 22.2 67.3 1020.0 4.4 NE 9.9 NNE 0.0 8.9
17:40 22.1 69.9 1020.0 2.3 E 6.7 ENE 0.1 22.1
17:45 21.9 71.8 1020.0 2.7 ENE 7.4 ENE 0.0 27.4
17:50 21.6 74.3 1021.0 1.3 SE 4.2 ESE 0.0 25.6
17:55 21.2 76.4 1020.0 2.5 SW 3.9 SSE 0.0 24.3
18:00 21.0 78.6 1020.0 1.8 W 3.9 W 0.0 21.1
18:05 20.7 80.6 1021.0 2.4 SW 4.2 SW 0.0 14.3
18:10 20.6 82.3 1020.0 2.0 SW 4.2 WSW 0.0 8.9
18:15 20.5 84.0 1021.0 2.1 SW 4.6 WSW 0.0 6.2
18:20 20.4 84.9 1021.0 2.3 SW 4.9 SW 0.0 5.4
18:25 20.3 85.8 1021.0 4.2 SW 5.6 SW 0.1 2.8
18:30 20.2 86.7 1021.0 2.7 SW 3.9 SW 0.0 2.5
18:35 20.2 87.3 1021.0 1.4 SW 2.8 WSW 0.0 3.2
18:40 20.2 87.7 1021.0 2.3 WSW 4.6 WSW 0.0 3.6
18:45 20.2 88.3 1021.0 3.0 WSW 6.0 WSW 0.0 2.3
18:50 20.1 88.6 1021.0 0.0 WNW 1.1 WNW 0.0 0.9
18:55 20.1 88.8 1021.0 2.5 SW 6.0 SSW 0.0 1.2
19:00 20.1 89.1 1021.0 2.6 SSW 4.6 SSW 0.0 1.7
19:05 20.0 89.3 1021.0 1.7 WNW 2.8 W 0.0 1.2
19:10 20.0 89.5 1021.0 1.0 WSW 2.5 W 0.0 0.4
19:15 19.9 89.7 1021.0 2.0 WSW 3.2 WSW 0.0 0.0
19:20 19.9 89.9 1022.0 3.3 SW 5.3 SW 0.0 0.0
19:25 19.8 90.1 1021.0 2.5 WSW 4.2 WSW 0.0 0.0
19:30 19.8 90.3 1021.0 2.6 SW 4.2 SW 0.0 0.0
19:35 19.8 90.6 1021.0 5.3 SSW 8.1 S 0.0 0.0
19:40 19.8 90.7 1021.0 1.1 WSW 4.6 SW 0.0 0.0
19:45 19.8 90.8 1021.0 1.7 WNW 3.2 NW 0.0 0.0
19:50 19.7 90.9 1022.0 2.8 SW 6.0 SSW 0.0 0.0
19:55 19.7 91.0 1021.0 1.7 S 5.3 SSW 0.0 0.0
20:00 19.7 91.1 1022.0 1.5 WSW 3.2 W 0.0 0.0
20:05 19.7 91.2 1022.0 3.6 SW 5.6 SW 0.0 0.0
20:10 19.6 91.2 1022.0 3.2 WSW 4.9 SW 0.0 0.0
20:15 19.6 91.4 1022.0 3.8 SW 5.6 SW 0.0 0.0
20:20 19.6 91.6 1022.0 2.6 S 5.6 SW 0.0 0.0
20:25 19.6 91.6 1022.0 2.3 WSW 3.5 WSW 0.0 0.0
Màxima 27.6 91.6 1022.0 11.6 NE 23.3 NE 0.1 1068.0
Mínima 17.5 40.7 1020.0
Total 0.2